createdAt,value
2023-03-11T00:01:14.307Z,10.55
2023-03-11T00:03:42.363Z,11.00
2023-03-11T00:06:10.806Z,8.13
2023-03-11T00:08:38.889Z,8.13
2023-03-11T00:11:08.395Z,8.68
2023-03-11T00:13:36.996Z,8.68
2023-03-11T00:16:05.655Z,9.30
2023-03-11T00:18:33.908Z,10.65
2023-03-11T00:21:02.536Z,12.48
2023-03-11T00:23:30.816Z,17.63
2023-03-11T00:25:59.870Z,5.85
2023-03-11T00:28:29.457Z,12.38
2023-03-11T00:31:05.778Z,8.85
2023-03-11T00:33:34.049Z,8.75
2023-03-11T00:36:02.119Z,9.68
2023-03-11T00:38:30.320Z,7.45
2023-03-11T00:41:01.624Z,6.45
2023-03-11T00:43:31.044Z,9.00
2023-03-11T00:45:59.105Z,7.05
2023-03-11T00:48:27.307Z,6.57
2023-03-11T00:50:55.445Z,9.32
2023-03-11T00:53:23.498Z,8.02
2023-03-11T00:55:51.514Z,9.93
2023-03-11T00:58:19.555Z,11.18
2023-03-11T05:02:48.288Z,15.73
2023-03-11T05:08:46.496Z,15.60
2023-03-11T05:11:14.613Z,17.60
2023-03-11T05:13:42.651Z,12.88
2023-03-11T05:16:10.766Z,15.88
2023-03-11T05:18:40.298Z,18.13
2023-03-11T05:21:08.416Z,17.25
2023-03-11T05:23:36.517Z,13.93
2023-03-11T05:26:04.840Z,16.73
2023-03-11T05:28:32.929Z,15.02
2023-03-11T05:31:01.008Z,12.43
2023-03-11T05:33:32.306Z,9.15
2023-03-11T05:36:07.138Z,12.13
2023-03-11T05:38:35.246Z,20.25
2023-03-11T05:41:03.387Z,10.23
2023-03-11T05:43:31.458Z,12.57
2023-03-11T05:45:59.511Z,17.15
2023-03-11T05:48:27.561Z,9.30
2023-03-11T05:50:55.710Z,19.80
2023-03-11T05:53:25.327Z,16.73
2023-03-11T05:55:59.088Z,14.63
2023-03-11T05:58:27.266Z,11.30
2023-03-11T06:00:55.408Z,13.00
2023-03-11T06:03:23.799Z,13.27
2023-03-11T06:05:53.029Z,15.88
2023-03-11T06:08:22.035Z,11.75
2023-03-11T06:10:51.432Z,19.42
2023-03-11T06:13:19.551Z,16.25
2023-03-11T06:15:47.600Z,11.38
2023-03-11T06:18:15.647Z,10.57
2023-03-11T06:20:43.669Z,9.75
2023-03-11T06:23:11.797Z,22.58
2023-03-11T06:25:40.022Z,17.42
2023-03-11T06:28:09.505Z,13.18
2023-03-11T06:30:37.605Z,11.38
2023-03-11T06:33:05.761Z,13.50
2023-03-11T06:35:33.907Z,17.38
2023-03-11T06:38:02.000Z,13.00
2023-03-11T06:40:30.090Z,14.30
2023-03-11T06:42:58.165Z,13.55
2023-03-11T06:45:27.797Z,12.95
2023-03-11T06:47:55.889Z,16.85
2023-03-11T06:50:24.121Z,8.88
2023-03-11T06:52:52.154Z,11.68
2023-03-11T06:55:21.230Z,10.23
2023-03-11T06:57:49.299Z,12.43
2023-03-11T07:00:18.211Z,12.07
2023-03-11T07:02:47.649Z,26.33
2023-03-11T07:05:15.842Z,12.65
2023-03-11T07:07:43.979Z,16.55
2023-03-11T07:10:13.154Z,8.90
2023-03-11T07:12:41.207Z,11.02
2023-03-11T07:15:10.772Z,14.80
2023-03-11T07:17:38.911Z,12.00
2023-03-11T07:20:10.441Z,7.78
2023-03-11T07:22:38.466Z,11.35
2023-03-11T07:25:07.512Z,12.63
2023-03-11T07:27:35.578Z,13.20
2023-03-11T07:30:04.755Z,11.65
2023-03-11T07:32:32.841Z,14.05
2023-03-11T07:35:00.925Z,11.77
2023-03-11T07:37:30.406Z,6.13
2023-03-11T07:39:58.509Z,9.70
2023-03-11T07:42:26.680Z,6.65
2023-03-11T07:44:54.858Z,11.73
2023-03-11T07:47:24.775Z,5.82
2023-03-11T07:49:52.865Z,7.25
2023-03-11T07:52:20.912Z,11.38
2023-03-11T07:54:50.347Z,10.90
2023-03-11T07:57:18.601Z,12.40
2023-03-11T07:59:46.651Z,13.20
2023-03-11T08:02:14.736Z,18.63
2023-03-11T08:04:42.824Z,15.43
2023-03-11T08:07:10.877Z,11.10
2023-03-11T08:09:38.923Z,10.45
2023-03-11T08:12:09.392Z,7.80
2023-03-11T08:14:37.735Z,20.23
2023-03-11T08:17:05.980Z,9.75
2023-03-11T08:19:34.042Z,9.23
2023-03-11T08:22:02.989Z,12.10
2023-03-11T08:24:31.024Z,8.13
2023-03-11T08:26:59.085Z,11.23
2023-03-11T08:29:28.530Z,12.23
2023-03-11T08:31:56.642Z,6.22
2023-03-11T08:34:24.762Z,6.25
2023-03-11T08:36:52.926Z,11.38
2023-03-11T08:39:20.938Z,7.70
2023-03-11T08:41:49.037Z,14.07
2023-03-11T08:44:17.091Z,8.52
2023-03-11T08:46:46.734Z,10.65
2023-03-11T08:49:14.953Z,7.22
2023-03-11T08:51:43.152Z,9.77
2023-03-11T08:54:11.404Z,12.88
2023-03-11T08:56:39.557Z,8.52
2023-03-11T08:59:08.502Z,8.70
2023-03-11T09:01:36.606Z,8.00
2023-03-11T09:04:06.309Z,10.65
2023-03-11T09:06:34.413Z,6.90
2023-03-11T09:09:02.500Z,5.78
2023-03-11T09:11:30.601Z,8.93
2023-03-11T09:13:58.619Z,6.53
2023-03-11T09:16:26.843Z,4.97
2023-03-11T09:18:54.973Z,8.98
2023-03-11T09:21:26.429Z,7.35
2023-03-11T09:23:54.444Z,7.43
2023-03-11T09:26:23.071Z,9.27
2023-03-11T09:28:51.110Z,14.23
2023-03-11T09:31:19.806Z,7.03
2023-03-11T09:33:48.416Z,9.15
2023-03-11T09:36:18.661Z,10.15
2023-03-11T09:38:48.190Z,5.85
2023-03-11T09:41:27.452Z,8.18
2023-03-11T09:44:04.932Z,8.95
2023-03-11T09:47:07.761Z,4.32
2023-03-11T09:49:51.808Z,4.97
2023-03-11T09:52:25.732Z,9.65
2023-03-11T09:54:57.308Z,9.45
2023-03-11T09:57:28.110Z,3.80
2023-03-11T09:59:56.544Z,6.57
2023-03-11T10:02:26.913Z,7.78
2023-03-11T10:04:58.569Z,5.28
2023-03-11T10:07:29.979Z,9.23
2023-03-11T10:10:00.354Z,5.45
2023-03-11T10:12:43.332Z,6.47
2023-03-11T10:15:19.083Z,6.32
2023-03-11T10:18:07.987Z,11.68
2023-03-11T10:20:44.067Z,10.05
2023-03-11T10:23:21.644Z,4.50
2023-03-11T10:25:59.135Z,13.93
2023-03-11T10:28:29.816Z,5.63
2023-03-11T10:31:01.112Z,7.95
2023-03-11T10:33:32.999Z,6.45
2023-03-11T10:36:05.960Z,5.70
2023-03-11T10:41:08.034Z,4.57
2023-03-11T10:43:39.731Z,9.98
2023-03-11T10:46:13.502Z,7.05
2023-03-11T10:48:41.544Z,8.50
2023-03-11T10:51:18.002Z,4.70
2023-03-11T10:53:49.140Z,11.65
2023-03-11T10:56:29.864Z,8.68
2023-03-11T10:58:58.624Z,5.45
2023-03-11T11:01:28.810Z,8.68
2023-03-11T11:04:00.882Z,9.27
2023-03-11T11:06:30.756Z,9.27
2023-03-11T11:09:19.834Z,4.28
2023-03-11T11:12:06.265Z,8.75
2023-03-11T11:14:47.872Z,6.13
2023-03-11T11:17:21.009Z,6.95
2023-03-11T11:19:50.631Z,6.47
2023-03-11T11:22:19.808Z,3.10
2023-03-11T11:24:48.986Z,7.13
2023-03-11T11:27:20.710Z,9.68
2023-03-11T11:29:50.272Z,7.90
2023-03-11T11:32:21.417Z,6.47
2023-03-11T11:34:59.209Z,5.18
2023-03-11T11:37:31.860Z,9.95
2023-03-11T11:40:11.189Z,5.68
2023-03-11T11:42:42.850Z,21.77
2023-03-11T11:45:16.084Z,9.02
2023-03-11T11:47:48.249Z,6.40
2023-03-11T11:50:19.680Z,4.73
2023-03-11T11:52:51.110Z,5.10
2023-03-11T11:55:22.342Z,6.72
2023-03-11T11:57:52.449Z,5.63
2023-03-11T12:00:24.386Z,5.63
2023-03-11T12:03:07.649Z,5.83
2023-03-11T12:05:39.250Z,9.82
2023-03-11T12:08:14.452Z,6.35
2023-03-11T12:10:45.741Z,4.18
2023-03-11T12:13:44.873Z,3.75
2023-03-11T12:16:21.045Z,6.28
2023-03-11T12:18:52.891Z,6.38
2023-03-11T12:21:32.872Z,5.43
2023-03-11T12:24:10.796Z,3.95
2023-03-11T12:26:40.825Z,4.97
2023-03-11T12:29:16.194Z,8.77
2023-03-11T12:31:44.731Z,4.15
2023-03-11T12:34:15.180Z,7.95
2023-03-11T12:36:45.548Z,4.13
2023-03-11T12:39:24.349Z,4.40
2023-03-11T12:42:16.056Z,5.60
2023-03-11T12:44:46.428Z,5.07
2023-03-11T12:47:28.926Z,3.35
2023-03-11T12:50:00.782Z,3.38
2023-03-11T12:52:30.696Z,6.45
2023-03-11T12:55:38.466Z,7.22
2023-03-11T12:58:32.014Z,4.38
2023-03-11T13:03:50.494Z,10.82
2023-03-11T13:06:40.739Z,5.40
2023-03-11T13:09:15.060Z,13.43
2023-03-11T13:11:45.468Z,7.00
2023-03-11T13:14:24.582Z,4.13
2023-03-11T13:16:54.020Z,4.88
2023-03-11T13:19:50.290Z,6.70
2023-03-11T13:23:02.836Z,5.93
2023-03-11T13:25:38.392Z,5.20
2023-03-11T13:28:37.002Z,3.42
2023-03-11T13:31:15.946Z,5.72
2023-03-11T13:33:50.890Z,3.58
2023-03-11T13:36:31.537Z,4.22
2023-03-11T13:39:27.524Z,6.47
2023-03-11T13:41:56.064Z,5.13
2023-03-11T13:44:29.189Z,3.63
2023-03-11T13:47:01.787Z,2.83
2023-03-11T13:49:37.179Z,6.55
2023-03-11T13:52:10.910Z,7.13
2023-03-11T13:54:46.612Z,1.65
2023-03-11T13:57:26.345Z,9.43
2023-03-11T13:59:55.373Z,2.08
2023-03-11T14:02:25.645Z,9.25
2023-03-11T14:04:59.406Z,6.40
2023-03-11T14:07:30.485Z,7.15
2023-03-11T14:10:17.941Z,6.38
2023-03-11T14:12:46.093Z,4.22
2023-03-11T14:15:17.306Z,4.13
2023-03-11T14:17:47.712Z,3.72
2023-03-11T14:20:22.278Z,3.67
2023-03-11T14:22:52.609Z,2.90
2023-03-11T14:25:23.577Z,3.22
2023-03-11T14:27:55.045Z,4.85
2023-03-11T14:30:26.174Z,7.75
2023-03-11T14:32:59.418Z,2.58
2023-03-11T14:35:29.421Z,5.80
2023-03-11T14:37:57.637Z,6.13
2023-03-11T14:40:28.297Z,7.20
2023-03-11T14:42:57.864Z,11.02
2023-03-11T14:45:28.655Z,7.97
2023-03-11T14:47:59.413Z,5.80
2023-03-11T14:50:31.828Z,3.78
2023-03-11T14:53:04.353Z,3.38
2023-03-11T14:55:35.019Z,5.15
2023-03-11T14:58:05.306Z,3.72
2023-03-11T15:00:36.460Z,5.18
2023-03-11T15:03:14.348Z,3.17
2023-03-11T15:05:47.928Z,9.13
2023-03-11T15:08:19.044Z,8.27
2023-03-11T15:11:15.126Z,3.97
2023-03-11T15:13:46.364Z,3.40
2023-03-11T15:16:25.066Z,7.28
2023-03-11T15:18:54.457Z,5.20
2023-03-11T15:21:25.176Z,3.97
2023-03-11T15:23:55.036Z,6.72
2023-03-11T15:26:25.049Z,2.65
2023-03-11T15:28:58.901Z,9.95
2023-03-11T15:31:36.142Z,5.57
2023-03-11T15:34:28.634Z,2.17
2023-03-11T15:37:01.538Z,4.93
2023-03-11T15:39:43.818Z,5.13
2023-03-11T15:42:24.467Z,5.85
2023-03-11T15:45:03.128Z,5.53
2023-03-11T15:47:31.383Z,2.70
2023-03-11T15:49:59.509Z,4.10
2023-03-11T15:52:28.948Z,3.45
2023-03-11T15:54:56.977Z,3.97
2023-03-11T15:57:27.441Z,3.83
2023-03-11T15:59:57.005Z,5.75
2023-03-11T16:02:27.308Z,1.92
2023-03-11T16:04:56.160Z,3.22
2023-03-11T16:07:38.833Z,5.82
2023-03-11T16:10:10.401Z,6.50
2023-03-11T16:12:39.086Z,8.25
2023-03-11T16:15:11.615Z,7.15
2023-03-11T16:17:49.447Z,6.95
2023-03-11T16:20:18.530Z,4.60
2023-03-11T16:22:47.252Z,7.75
2023-03-11T16:25:21.894Z,9.30
2023-03-11T16:27:51.761Z,7.00
2023-03-11T16:30:20.336Z,5.38
2023-03-11T16:32:48.507Z,4.20
2023-03-11T16:35:16.846Z,9.40
2023-03-11T16:37:45.012Z,13.00
2023-03-11T16:40:14.496Z,14.10
2023-03-11T16:42:44.727Z,12.48
2023-03-11T16:45:13.892Z,48.83
2023-03-11T16:47:41.963Z,39.25
2023-03-11T16:50:11.526Z,23.85
2023-03-11T16:52:39.667Z,16.23
2023-03-11T16:55:08.496Z,28.63
2023-03-11T16:57:37.853Z,41.17
2023-03-11T17:00:10.825Z,33.38
2023-03-11T17:05:08.197Z,26.10
2023-03-11T17:07:39.180Z,18.52
2023-03-11T17:10:08.382Z,12.00
2023-03-11T17:12:37.105Z,11.60
2023-03-11T17:15:07.889Z,12.05
2023-03-11T17:17:36.011Z,10.75
2023-03-11T17:20:06.232Z,5.45
2023-03-11T17:22:34.331Z,11.60
2023-03-11T17:25:02.902Z,27.40
2023-03-11T17:27:32.569Z,13.82
2023-03-11T17:30:01.203Z,12.93
2023-03-11T17:32:30.842Z,13.60
2023-03-11T17:34:59.011Z,16.17
2023-03-11T17:37:27.882Z,18.48
2023-03-11T17:39:56.035Z,17.98
2023-03-11T17:42:24.467Z,15.20
2023-03-11T17:44:54.506Z,10.98
2023-03-11T17:47:25.995Z,6.15
2023-03-11T17:49:55.577Z,5.88
2023-03-11T17:52:23.593Z,10.02
2023-03-11T17:54:52.083Z,4.72
2023-03-11T17:57:20.119Z,4.70
2023-03-11T17:59:52.662Z,5.72
2023-03-11T18:02:21.149Z,10.10
2023-03-11T18:04:53.852Z,7.95
2023-03-11T18:07:23.760Z,14.93
2023-03-11T18:09:53.321Z,32.40
2023-03-11T18:12:22.042Z,26.95
2023-03-11T18:14:50.119Z,23.80
2023-03-11T18:17:18.924Z,10.77
2023-03-11T18:19:47.143Z,13.30
2023-03-11T18:22:15.519Z,8.43
2023-03-11T18:24:45.640Z,14.13
2023-03-11T18:27:13.691Z,5.75
2023-03-11T18:29:41.936Z,5.72
2023-03-11T18:32:10.185Z,8.18
2023-03-11T18:34:38.332Z,7.40
2023-03-11T18:37:06.456Z,9.50
2023-03-11T18:39:34.517Z,8.25
2023-03-11T18:42:04.543Z,5.90
2023-03-11T18:44:37.345Z,14.23
2023-03-11T18:47:05.410Z,8.20
2023-03-11T18:49:33.656Z,15.30
2023-03-11T18:52:01.696Z,16.40
2023-03-11T18:54:29.951Z,11.90
2023-03-11T18:56:58.029Z,8.77
2023-03-11T18:59:28.320Z,21.70
2023-03-11T19:01:56.462Z,21.63
2023-03-11T19:04:24.589Z,17.27
2023-03-11T19:06:52.665Z,15.43
2023-03-11T19:09:20.748Z,19.67
2023-03-11T19:11:48.881Z,19.67
2023-03-11T19:14:16.907Z,18.80
2023-03-11T19:16:46.396Z,12.30
2023-03-11T19:19:14.591Z,22.85
2023-03-11T19:21:42.847Z,18.30
2023-03-11T19:24:11.086Z,27.65
2023-03-11T19:26:45.191Z,22.40
2023-03-11T19:29:14.742Z,21.83
2023-03-11T19:31:43.578Z,20.70
2023-03-11T19:34:13.226Z,20.23
2023-03-11T19:36:41.376Z,21.60
2023-03-11T19:39:09.594Z,13.52
2023-03-11T19:41:37.643Z,11.32
2023-03-11T19:44:05.737Z,11.98
2023-03-11T19:46:34.872Z,11.45
2023-03-11T19:49:03.369Z,17.20
2023-03-11T19:51:48.701Z,16.33
2023-03-11T19:54:17.526Z,13.93
2023-03-11T19:56:45.606Z,17.50
2023-03-11T19:59:13.686Z,17.60
2023-03-11T20:01:42.889Z,16.92
2023-03-11T20:04:11.372Z,15.13
2023-03-11T20:06:40.947Z,15.55
2023-03-11T20:09:09.095Z,21.60
2023-03-11T20:11:40.120Z,19.67
2023-03-11T20:14:08.333Z,13.10
2023-03-11T20:16:36.476Z,16.48
2023-03-11T20:19:04.826Z,14.30
2023-03-11T20:21:33.100Z,14.90
2023-03-11T20:24:02.586Z,16.40
2023-03-11T20:26:30.725Z,21.48
2023-03-11T20:28:58.908Z,12.68
2023-03-11T20:31:28.136Z,17.92
2023-03-11T20:33:56.780Z,18.15
2023-03-11T20:36:26.795Z,22.65
2023-03-11T20:38:56.198Z,17.33
2023-03-11T20:41:26.998Z,17.10
2023-03-11T20:43:56.281Z,16.23
2023-03-11T20:46:24.709Z,21.20
2023-03-11T20:48:52.790Z,17.88
2023-03-11T20:51:23.164Z,16.95
2023-03-11T20:53:51.275Z,25.23
2023-03-11T20:56:20.877Z,17.33
2023-03-11T20:58:51.794Z,25.25
2023-03-11T21:01:21.970Z,19.50
2023-03-11T21:03:50.409Z,15.07
2023-03-11T21:06:20.007Z,15.75
2023-03-11T21:08:48.549Z,15.38
2023-03-11T21:11:17.450Z,17.95
2023-03-11T21:13:45.787Z,18.65
2023-03-11T21:16:15.626Z,11.90
2023-03-11T21:18:44.433Z,16.42
2023-03-11T21:21:13.079Z,16.75
2023-03-11T21:23:42.114Z,14.35
2023-03-11T21:26:10.595Z,25.23
2023-03-11T21:28:40.126Z,14.35
2023-03-11T21:31:10.903Z,16.13
2023-03-11T21:33:41.494Z,12.73
2023-03-11T21:36:10.850Z,15.07
2023-03-11T21:38:40.525Z,13.10
2023-03-11T21:41:10.944Z,17.13
2023-03-11T21:43:39.851Z,14.55
2023-03-11T21:46:08.767Z,16.83
2023-03-11T21:48:37.042Z,19.25
2023-03-11T21:51:07.236Z,22.83
2023-03-11T21:53:35.945Z,28.98
2023-03-11T21:56:04.709Z,21.92
2023-03-11T21:58:33.378Z,27.48
2023-03-11T22:01:01.854Z,34.63
2023-03-11T22:03:30.728Z,30.38
2023-03-11T22:05:58.974Z,38.80
2023-03-11T22:08:28.777Z,30.63
2023-03-11T22:10:57.072Z,36.38
2023-03-11T22:13:25.635Z,32.13
2023-03-11T22:15:53.878Z,20.27
2023-03-11T22:18:22.270Z,18.10
2023-03-11T22:20:50.430Z,13.82
2023-03-11T22:23:18.506Z,13.35
2023-03-11T22:25:47.890Z,16.23
2023-03-11T22:28:15.956Z,20.10
2023-03-11T22:30:43.974Z,13.73
2023-03-11T22:33:12.090Z,17.55
2023-03-11T22:35:40.172Z,16.60
2023-03-11T22:38:08.500Z,16.52
2023-03-11T22:40:36.518Z,16.55
2023-03-11T22:43:05.951Z,17.45
2023-03-11T22:45:33.985Z,15.75
2023-03-11T22:48:02.146Z,18.05
2023-03-11T22:50:30.223Z,16.92
2023-03-11T22:52:58.368Z,14.45
2023-03-11T22:55:26.418Z,15.77
2023-03-11T22:57:54.517Z,15.60
2023-03-11T23:00:25.222Z,17.50
2023-03-11T23:02:55.070Z,13.43
2023-03-11T23:05:23.804Z,13.60
2023-03-11T23:07:52.379Z,13.18
2023-03-11T23:10:21.331Z,16.05
2023-03-11T23:12:50.070Z,15.00
2023-03-11T23:15:19.651Z,19.48
2023-03-11T23:17:49.123Z,15.10
2023-03-11T23:20:18.232Z,14.63
2023-03-11T23:22:46.315Z,15.75
2023-03-11T23:25:16.221Z,18.35
2023-03-11T23:27:46.196Z,11.45
2023-03-11T23:30:16.811Z,15.70
2023-03-11T23:32:45.130Z,16.70
2023-03-11T23:35:14.600Z,14.55
2023-03-11T23:37:42.652Z,14.05
2023-03-11T23:40:12.124Z,15.15
2023-03-11T23:42:40.238Z,17.65
2023-03-11T23:45:09.570Z,13.90
2023-03-11T23:47:38.053Z,17.35
2023-03-11T23:50:06.991Z,10.30
2023-03-11T23:52:36.808Z,14.80
2023-03-11T23:55:05.263Z,17.60
2023-03-11T23:57:35.656Z,13.80
